Flight Track Log - Related Links

Times and Time Zones

All times are in EDT time to prevent confusion due to time zone crossing. See the KCE2 flight status page for this flight to view local times or setup timezone preferences in your user account.

Time Position Orientation Groundspeed Altitude Reporting Facility
EDT Latitude Longitude Course Direction KTS MPH feet Rate Location/Type
Mon 06:20:32 PM 42.7653 -73.8061 North 165 190 1,400  Level Boston Center
Mon 06:22:06 PM 42.8633 -73.7997 North 245 282 7,400 4,208 Climbing Boston Center
Mon 06:23:06 PM 42.9064 -73.6758 65° Northeast 258 297 12,200 4,100 Climbing Boston Center
Mon 06:24:06 PM 42.9450 -73.5633 65° Northeast 296 341 15,600 2,865 Climbing Boston Center
Mon 06:30:07 PM 43.2180 -72.7440 65° Northeast 440 506 32,300 2,749 Climbing FlightAware ADS-B
Mon 06:30:52 PM 43.2540 -72.6320 66° East 435 501 34,200 2,047 Climbing FlightAware ADS-B
Mon 06:31:32 PM 43.2870 -72.5310 66° East 445 512 35,200 1,765 Climbing FlightAware ADS-B
Mon 06:32:17 PM 43.3260 -72.4100 66° East 444 511 36,700 2,118 Climbing FlightAware ADS-B
Mon 06:32:57 PM 43.3580 -72.3100 66° East 435 501 38,200 1,875 Climbing FlightAware ADS-B
Mon 06:33:37 PM 43.3910 -72.2090 66° East 435 501 39,200 1,694 Climbing FlightAware ADS-B
Mon 06:34:22 PM 43.4260 -72.0970 67° East 423 487 40,600 1,271 Climbing FlightAware ADS-B
Mon 06:35:02 PM 43.4580 -71.9970 66° East 432 497 41,000 282 Climbing FlightAware ADS-B
Mon 06:35:47 PM 43.4950 -71.8810 66° East 450 518 41,000  Level FlightAware ADS-B
Mon 06:36:27 PM 43.5280 -71.7750 67° East 455 524 41,000  Level FlightAware ADS-B
Mon 06:37:07 PM 43.5620 -71.6690 66° East 456 525 41,000  Level FlightAware ADS-B
Mon 06:37:52 PM 43.6000 -71.5480 67° East 458 527 41,000  Level FlightAware ADS-B
Mon 06:38:32 PM 43.6330 -71.4400 67° East 459 528 41,000  Level FlightAware ADS-B
Mon 06:39:17 PM 43.6700 -71.3220 67° East 461 531 41,000  Level FlightAware ADS-B
Mon 06:39:57 PM 43.7030 -71.2140 67° East 463 533 41,000  Level FlightAware ADS-B
Mon 06:40:37 PM 43.7370 -71.1050 67° East 465 535 41,000  Level FlightAware ADS-B
Mon 06:41:22 PM 43.7760 -70.9780 67° East 465 535 41,000  Level FlightAware ADS-B
Mon 06:42:02 PM 43.8090 -70.8700 67° East 467 537 41,000  Level FlightAware ADS-B
Mon 06:42:47 PM 43.8450 -70.7500 67° East 468 539 41,000  Level FlightAware ADS-B
Mon 06:43:27 PM 43.8790 -70.6390 67° East 468 539 41,000  Level FlightAware ADS-B
Mon 06:44:07 PM 43.9130 -70.5250 67° East 470 541 41,000  Level FlightAware ADS-B
Mon 06:44:52 PM 43.9510 -70.3990 67° East 469 540 41,000  Level FlightAware ADS-B
Mon 06:45:32 PM 43.9840 -70.2870 68° East 471 542 41,000  Level FlightAware ADS-B
Mon 06:46:17 PM 44.0200 -70.1660 67° East 472 543 41,000  Level FlightAware ADS-B
Mon 06:46:57 PM 44.0520 -70.0560 68° East 471 542 41,000  Level FlightAware ADS-B
Mon 06:47:37 PM 44.0860 -69.9410 68° East 473 544 41,000  Level FlightAware ADS-B
Mon 06:48:22 PM 44.1240 -69.8130 67° East 473 544 41,000  Level FlightAware ADS-B
Mon 06:49:02 PM 44.1560 -69.7010 68° East 472 543 41,000  Level FlightAware ADS-B
Mon 06:49:42 PM 44.1890 -69.5890 68° East 470 541 41,000  Level FlightAware ADS-B
Mon 06:50:27 PM 44.2240 -69.4650 68° East 468 539 41,000  Level FlightAware ADS-B
Mon 06:51:07 PM 44.2570 -69.3510 68° East 469 540 41,000  Level FlightAware ADS-B
Mon 06:51:52 PM 44.2940 -69.2240 68° East 467 537 41,000  Level FlightAware ADS-B
Mon 06:52:32 PM 44.3250 -69.1130 69° East 467 537 41,000  Level FlightAware ADS-B
Mon 06:53:12 PM 44.3570 -69.0000 68° East 468 539 41,000  Level FlightAware ADS-B
Mon 06:53:57 PM 44.3890 -68.8850 69° East 467 537 41,000 -71 Level FlightAware ADS-B
Mon 06:54:37 PM 44.4210 -68.7710 69° East 463 533 40,900 -847 Descending FlightAware ADS-B
Mon 06:55:22 PM 44.4580 -68.6400 68° East 456 525 39,800 -1,765 Descending FlightAware ADS-B
Mon 06:56:02 PM 44.4880 -68.5310 69° East 451 519 38,400 -2,325 Descending FlightAware ADS-B
Mon 06:56:42 PM 44.5200 -68.4160 69° East 469 540 36,700 -2,541 Descending FlightAware ADS-B
Mon 06:57:27 PM 44.5550 -68.2880 69° East 487 560 34,800 -2,541 Descending FlightAware ADS-B
Mon 06:58:07 PM 44.5880 -68.1680 69° East 495 570 33,100 -2,541 Descending FlightAware ADS-B
Mon 06:58:52 PM 44.6240 -68.0370 69° East 497 572 31,200 -2,612 Descending FlightAware ADS-B
Mon 06:59:32 PM 44.6580 -67.9120 69° East 502 578 29,400 -2,625 Descending FlightAware ADS-B
Mon 07:00:12 PM 44.6890 -67.7950 70° East 503 579 27,700 -2,612 Descending FlightAware ADS-B
Mon 07:00:57 PM 44.7260 -67.6550 70° East 491 565 25,700 -2,612 Descending FlightAware ADS-B
Mon 07:01:37 PM 44.7570 -67.5390 69° East 477 549 24,000 -2,550 Descending FlightAware ADS-B
Mon 07:02:17 PM 44.7880 -67.4230 69° East 459 528 22,300 -2,400 Descending FlightAware ADS-B
Mon 07:03:02 PM 44.8200 -67.3040 69° East 446 513 20,600 -2,400 Descending FlightAware ADS-B
Mon 07:03:42 PM 44.8480 -67.1950 70° East 438 504 18,900 -2,329 Descending FlightAware ADS-B
Mon 07:04:27 PM 44.8760 -67.0870 70° East 406 467 17,300 -2,118 Descending FlightAware ADS-B
Mon 07:05:07 PM 44.9070 -66.9930 65° Northeast 363 418 15,900 -2,025 Descending FlightAware ADS-B
Mon 07:05:47 PM 44.9410 -66.9170 58° Northeast 336 387 14,600 -1,553 Descending FlightAware ADS-B
Mon 07:06:32 PM 44.9770 -66.8370 58° Northeast 304 350 13,700 -1,129 Descending FlightAware ADS-B
Mon 07:07:12 PM 45.0060 -66.7730 57° Northeast 281 323 13,000 -1,059 Descending FlightAware ADS-B
Mon 07:07:57 PM 45.0370 -66.7050 57° Northeast 268 308 12,200 -988 Descending FlightAware ADS-B
Mon 07:08:37 PM 45.0630 -66.6460 58° Northeast 251 289 11,600 -918 Descending FlightAware ADS-B
Mon 07:09:22 PM 45.0900 -66.5850 58° Northeast 246 283 10,900 -918 Descending FlightAware ADS-B
Mon 07:10:02 PM 45.1150 -66.5310 57° Northeast 239 275 10,300 -943 Descending FlightAware ADS-B
Mon 07:10:32 PM 45.1320 -66.4930 58° Northeast 231 266 9,800 -873 Descending FlightAware ADS-B
Mon 07:10:57 PM 45.1470 -66.4600 57° Northeast 227 261 9,500 -750 Descending FlightAware ADS-B
Mon 07:11:12 PM 45.1560 -66.4400 57° Northeast 225 259 9,300 -900 Descending FlightAware ADS-B
Mon 07:11:37 PM 45.1690 -66.4100 58° Northeast 227 261 8,900 -900 Descending FlightAware ADS-B
Mon 07:11:52 PM 45.1720 -66.3900 78° East 236 272 8,700 -667 Descending FlightAware ADS-B
Mon 07:12:22 PM 45.1570 -66.3450 115° Southeast 238 274 8,400 -700 Descending FlightAware ADS-B
Mon 07:12:52 PM 45.1390 -66.3080 125° Southeast 237 273 8,000 -800 Descending FlightAware ADS-B
Mon 07:13:07 PM 45.1290 -66.2870 124° Southeast 238 274 7,800 -800 Descending FlightAware ADS-B
Mon 07:13:22 PM 45.1200 -66.2680 124° Southeast 238 274 7,600 -857 Descending FlightAware ADS-B
Mon 07:13:42 PM 45.1070 -66.2400 123° Southeast 237 273 7,300 -800 Descending FlightAware ADS-B
Mon 07:14:07 PM 45.0920 -66.2090 124° Southeast 238 274 7,000 -873 Descending FlightAware ADS-B
Mon 07:14:37 PM 45.0720 -66.1680 125° Southeast 238 274 6,500 -900 Descending FlightAware ADS-B
Mon 07:15:07 PM 45.0540 -66.1300 124° Southeast 234 269 6,100 -764 Descending FlightAware ADS-B
Mon 07:15:32 PM 45.0380 -66.0980 125° Southeast 234 269 5,800 -764 Descending FlightAware ADS-B
Mon 07:16:02 PM 45.0210 -66.0590 122° Southeast 227 261 5,400 -764 Descending FlightAware ADS-B
Mon 07:16:27 PM 45.0090 -66.0320 122° Southeast 223 257 5,100 -873 Descending FlightAware ADS-B
Mon 07:16:57 PM 44.9910 -65.9910 122° Southeast 221 254 4,600 -800 Descending FlightAware ADS-B
Mon 07:17:12 PM 44.9870 -65.9700 105° East 222 255 4,500 -800 Descending FlightAware ADS-B
Mon 07:17:27 PM 44.9940 -65.9500 64° Northeast 222 255 4,200 -960 Descending FlightAware ADS-B
Mon 07:17:37 PM 45.0010 -65.9430 35° Northeast 218 251 4,100 -267 Descending FlightAware ADS-B
Mon 07:18:12 PM 45.0310 -65.9270 21° North 210 242 4,000 -771 Descending FlightAware ADS-B
Mon 07:18:47 PM 45.0667 -65.9667 21° North 210 242 3,200 -568 Descending Moncton Center
Mon 07:19:47 PM 45.1000 -65.9833 341° North 190 219 3,100 -550 Descending Moncton Center
Mon 07:20:47 PM 45.1667 -65.9833 360° North 180 207 2,100 -500 Descending Moncton Center
Mon 07:21:47 PM 45.2000 -65.9667 19° North 170 196 2,100 -300 Level Moncton Center
Mon 07:22:47 PM 45.2500 -65.9333 25° Northeast 180 207 1,500 -700 Descending Moncton Center
Mon 07:23:47 PM 45.2833 -65.9000 35° Northeast 160 184 700 -800 Descending Moncton Center

Login

Don't have an account? Register now (free) for customized features, flight alerts, and more!